createdAt,value
2019-05-10T00:00:45.606Z,100090.19
2019-05-10T00:03:34.474Z,100085.31
2019-05-10T00:06:21.864Z,100084.24
2019-05-10T00:08:50.369Z,100094.59
2019-05-10T00:11:41.788Z,100092.70
2019-05-10T00:14:31.261Z,100089.44
2019-05-10T00:17:05.889Z,100101.91
2019-05-10T00:19:35.483Z,100096.31
2019-05-10T00:22:06.017Z,100092.94
2019-05-10T00:24:39.176Z,100091.87
2019-05-10T00:27:08.901Z,100092.11
2019-05-10T00:29:38.539Z,100088.26
2019-05-10T00:32:08.405Z,100094.77
2019-05-10T00:34:38.844Z,100098.89
2019-05-10T00:37:10.063Z,100100.36
2019-05-10T00:39:39.687Z,100096.64
2019-05-10T00:42:09.133Z,100098.94
2019-05-10T00:44:38.609Z,100097.01
2019-05-10T00:47:09.239Z,100101.50
2019-05-10T00:49:39.395Z,100097.62
2019-05-10T00:52:09.085Z,100104.58
2019-05-10T00:54:39.579Z,100104.93
2019-05-10T00:57:10.267Z,100106.28
2019-05-10T00:59:39.895Z,100106.20
2019-05-10T01:02:13.247Z,100099.02
2019-05-10T01:04:42.865Z,100103.62
2019-05-10T01:07:13.493Z,100103.41
2019-05-10T01:09:43.106Z,100103.56
2019-05-10T01:12:12.599Z,100105.27
2019-05-10T01:14:42.089Z,100109.43
2019-05-10T01:17:11.838Z,100105.66
2019-05-10T01:19:43.971Z,100101.05
2019-05-10T01:22:15.150Z,100109.22
2019-05-10T01:24:48.263Z,100117.97
2019-05-10T01:27:19.191Z,100113.47
2019-05-10T01:29:48.673Z,100112.27
2019-05-10T01:32:19.311Z,100118.45
2019-05-10T01:34:51.229Z,100109.44
2019-05-10T01:37:21.723Z,100126.09
2019-05-10T01:39:51.663Z,100135.58
2019-05-10T01:42:21.165Z,100139.47
2019-05-10T01:44:56.574Z,100135.80
2019-05-10T01:47:26.254Z,100135.09
2019-05-10T01:49:56.827Z,100133.41
2019-05-10T01:52:26.577Z,100139.72
2019-05-10T01:54:57.608Z,100141.16
2019-05-10T01:57:28.709Z,100143.09
2019-05-10T01:59:58.238Z,100145.42
2019-05-10T02:02:27.989Z,100145.67
2019-05-10T02:04:58.611Z,100149.08
2019-05-10T02:07:28.056Z,100151.85
2019-05-10T02:09:58.034Z,100158.66
2019-05-10T02:12:29.431Z,100160.73
2019-05-10T02:15:01.078Z,100158.70
2019-05-10T02:17:33.823Z,100156.25
2019-05-10T02:20:03.501Z,100160.16
2019-05-10T02:22:33.085Z,100161.14
2019-05-10T02:25:03.896Z,100169.27
2019-05-10T02:27:33.366Z,100166.84
2019-05-10T02:30:02.995Z,100169.03
2019-05-10T02:32:32.573Z,100171.20
2019-05-10T02:35:02.044Z,100172.52
2019-05-10T02:37:32.684Z,100169.23
2019-05-10T02:40:02.537Z,100171.06
2019-05-10T02:42:32.060Z,100178.11
2019-05-10T02:45:03.116Z,100181.38
2019-05-10T02:47:34.498Z,100181.23
2019-05-10T02:50:04.269Z,100186.98
2019-05-10T02:52:34.939Z,100189.27
2019-05-10T02:55:06.693Z,100190.00
2019-05-10T02:57:36.743Z,100187.20
2019-05-10T03:00:07.059Z,100195.35
2019-05-10T03:02:39.380Z,100191.94
2019-05-10T03:05:17.057Z,100192.45
2019-05-10T03:07:49.587Z,100194.02
2019-05-10T03:10:21.029Z,100196.48
2019-05-10T03:12:53.396Z,100198.16
2019-05-10T03:15:22.966Z,100199.63
2019-05-10T03:17:55.282Z,100213.75
2019-05-10T03:20:26.340Z,100217.75
2019-05-10T03:22:58.498Z,100224.06
2019-05-10T03:25:28.257Z,100220.18
2019-05-10T03:27:57.732Z,100230.16
2019-05-10T03:30:27.506Z,100236.11
2019-05-10T03:32:57.047Z,100235.38
2019-05-10T03:35:29.110Z,100236.63
2019-05-10T03:37:58.759Z,100238.91
2019-05-10T03:40:29.363Z,100242.44
2019-05-10T03:43:00.621Z,100232.72
2019-05-10T03:45:30.473Z,100240.09
2019-05-10T03:47:59.996Z,100240.47
2019-05-10T03:50:29.393Z,100236.93
2019-05-10T03:52:58.940Z,100248.02
2019-05-10T03:55:28.348Z,100246.08
2019-05-10T03:57:58.420Z,100245.81
2019-05-10T04:00:27.892Z,100245.68
2019-05-10T04:02:57.334Z,100252.36
2019-05-10T04:05:26.719Z,100251.27
2019-05-10T04:07:56.222Z,100252.00
2019-05-10T04:10:25.646Z,100256.00
2019-05-10T04:12:55.046Z,100246.63
2019-05-10T04:15:24.498Z,100258.77
2019-05-10T04:17:54.926Z,100250.27
2019-05-10T04:20:24.377Z,100255.13
2019-05-10T04:22:55.172Z,100249.77
2019-05-10T04:25:28.093Z,100251.83
2019-05-10T04:27:57.718Z,100255.13
2019-05-10T04:30:31.519Z,100258.15
2019-05-10T04:33:01.339Z,100265.23
2019-05-10T04:35:38.055Z,100260.23
2019-05-10T04:38:26.163Z,100272.16
2019-05-10T04:41:04.782Z,100274.13
2019-05-10T04:43:35.304Z,100278.24
2019-05-10T04:46:07.154Z,100278.15
2019-05-10T04:48:36.854Z,100288.35
2019-05-10T04:51:06.340Z,100292.06
2019-05-10T04:53:37.559Z,100297.56
2019-05-10T04:56:07.324Z,100294.61
2019-05-10T04:58:37.077Z,100291.06
2019-05-10T05:01:06.660Z,100293.39
2019-05-10T05:03:37.130Z,100298.16
2019-05-10T05:06:06.904Z,100286.83
2019-05-10T05:08:45.708Z,100296.20
2019-05-10T05:11:15.434Z,100296.55
2019-05-10T05:13:44.979Z,100290.84
2019-05-10T05:16:14.614Z,100294.59
2019-05-10T05:18:45.324Z,100298.26
2019-05-10T05:21:43.963Z,100299.33
2019-05-10T05:24:23.113Z,100304.45
2019-05-10T05:26:49.097Z,100303.60
2019-05-10T05:29:27.599Z,100308.58
2019-05-10T05:32:01.379Z,100310.05
2019-05-10T05:34:29.433Z,100319.77
2019-05-10T05:36:59.094Z,100318.81
2019-05-10T05:39:28.644Z,100316.38
2019-05-10T05:42:01.481Z,100321.03
2019-05-10T05:44:35.627Z,100320.34
2019-05-10T05:47:05.256Z,100320.70
2019-05-10T05:49:47.015Z,100326.07
2019-05-10T05:52:22.198Z,100324.34
2019-05-10T05:54:52.857Z,100323.63
2019-05-10T05:57:27.599Z,100328.81
2019-05-10T05:59:57.309Z,100330.70
2019-05-10T06:02:27.881Z,100334.30
2019-05-10T06:04:57.480Z,100332.88
2019-05-10T06:07:31.235Z,100334.81
2019-05-10T06:10:01.535Z,100333.09
2019-05-10T06:12:33.952Z,100339.07
2019-05-10T06:15:03.602Z,100345.48
2019-05-10T06:17:34.965Z,100340.33
2019-05-10T06:20:06.128Z,100338.88
2019-05-10T06:22:43.840Z,100350.39
2019-05-10T06:25:11.980Z,100357.02
2019-05-10T06:27:43.246Z,100355.96
2019-05-10T06:30:15.182Z,100354.47
2019-05-10T06:32:45.906Z,100362.23
2019-05-10T06:35:19.413Z,100364.37
2019-05-10T06:37:49.983Z,100365.87
2019-05-10T06:40:32.505Z,100369.41
2019-05-10T06:42:53.211Z,100371.12
2019-05-10T06:45:25.594Z,100375.28
2019-05-10T06:47:56.177Z,100370.78
2019-05-10T06:50:29.867Z,100377.35
2019-05-10T06:53:00.449Z,100378.73
2019-05-10T06:55:30.055Z,100380.96
2019-05-10T06:58:05.064Z,100393.67
2019-05-10T07:00:45.099Z,100383.45
2019-05-10T07:03:11.467Z,100386.51
2019-05-10T07:05:41.076Z,100393.36
2019-05-10T07:08:19.563Z,100393.58
2019-05-10T07:10:42.159Z,100392.62
2019-05-10T07:13:15.212Z,100398.80
2019-05-10T07:15:50.488Z,100401.75
2019-05-10T07:18:22.793Z,100402.11
2019-05-10T07:20:54.188Z,100401.52
2019-05-10T07:23:25.323Z,100416.64
2019-05-10T07:26:00.304Z,100415.91
2019-05-10T07:28:32.996Z,100422.02
2019-05-10T07:31:03.988Z,100434.05
2019-05-10T07:33:37.251Z,100431.50
2019-05-10T07:36:14.337Z,100434.41
2019-05-10T07:38:38.228Z,100439.28
2019-05-10T07:41:10.602Z,100431.38
2019-05-10T07:43:48.381Z,100431.98
2019-05-10T07:46:18.041Z,100434.18
2019-05-10T07:48:53.411Z,100437.81
2019-05-10T07:51:22.844Z,100439.39
2019-05-10T07:53:56.991Z,100438.87
2019-05-10T07:56:24.765Z,100434.84
2019-05-10T07:58:54.286Z,100430.23
2019-05-10T08:01:32.312Z,100432.22
2019-05-10T08:04:00.343Z,100437.80
2019-05-10T08:06:40.200Z,100436.59
2019-05-10T08:09:09.534Z,100450.98
2019-05-10T08:11:39.718Z,100453.00
2019-05-10T08:14:11.181Z,100450.10
2019-05-10T08:16:44.294Z,100456.05
2019-05-10T08:19:13.865Z,100453.08
2019-05-10T08:21:48.775Z,100462.38
2019-05-10T08:24:16.887Z,100459.59
2019-05-10T08:26:46.685Z,100464.55
2019-05-10T08:29:17.211Z,100465.85
2019-05-10T08:31:53.594Z,100467.28
2019-05-10T08:34:22.734Z,100467.09
2019-05-10T08:36:52.361Z,100481.49
2019-05-10T08:39:24.794Z,100486.72
2019-05-10T08:42:03.924Z,100480.69
2019-05-10T08:44:25.531Z,100486.81
2019-05-10T08:46:55.283Z,100491.92
2019-05-10T08:49:31.087Z,100498.02
2019-05-10T08:51:56.087Z,100496.05
2019-05-10T08:54:26.548Z,100499.80
2019-05-10T08:57:01.065Z,100505.58
2019-05-10T08:59:30.776Z,100504.14
2019-05-10T09:02:02.192Z,100515.25
2019-05-10T09:04:42.040Z,100522.69
2019-05-10T09:07:05.170Z,100515.83
2019-05-10T09:09:45.744Z,100522.42
2019-05-10T09:12:09.322Z,100519.35
2019-05-10T09:14:39.600Z,100530.34
2019-05-10T09:17:14.912Z,100530.67
2019-05-10T09:19:44.269Z,100534.59
2019-05-10T09:22:13.875Z,100540.83
2019-05-10T09:24:48.450Z,100546.22
2019-05-10T09:27:14.730Z,100554.30
2019-05-10T09:29:47.429Z,100561.14
2019-05-10T09:32:21.399Z,100563.48
2019-05-10T09:34:54.051Z,100562.27
2019-05-10T09:37:23.598Z,100577.22
2019-05-10T09:40:05.432Z,100579.89
2019-05-10T09:42:35.051Z,100586.06
2019-05-10T09:45:02.896Z,100588.10
2019-05-10T09:47:33.035Z,100594.99
2019-05-10T09:50:04.495Z,100603.64
2019-05-10T09:52:34.892Z,100607.48
2019-05-10T09:55:10.154Z,100610.36
2019-05-10T09:57:38.320Z,100614.17
2019-05-10T10:00:09.454Z,100621.41
2019-05-10T10:02:40.941Z,100626.59
2019-05-10T10:05:11.432Z,100624.61
2019-05-10T10:07:41.886Z,100625.65
2019-05-10T10:10:21.289Z,100626.48
2019-05-10T10:12:47.507Z,100632.14
2019-05-10T10:15:25.224Z,100637.02
2019-05-10T10:17:48.298Z,100643.69
2019-05-10T10:20:17.994Z,100639.58
2019-05-10T10:22:54.281Z,100640.13
2019-05-10T10:25:22.319Z,100649.27
2019-05-10T10:27:54.532Z,100648.07
2019-05-10T10:30:27.256Z,100651.31
2019-05-10T10:32:58.082Z,100648.84
2019-05-10T10:35:29.930Z,100655.73
2019-05-10T10:38:03.118Z,100659.65
2019-05-10T10:40:35.429Z,100662.12
2019-05-10T10:43:03.271Z,100656.02
2019-05-10T10:45:37.577Z,100659.44
2019-05-10T10:48:12.802Z,100660.77
2019-05-10T10:50:44.207Z,100671.13
2019-05-10T10:53:14.981Z,100673.30
2019-05-10T10:55:48.523Z,100671.20
2019-05-10T10:58:18.564Z,100683.82
2019-05-10T11:00:51.718Z,100687.17
2019-05-10T11:03:24.098Z,100686.50
2019-05-10T11:05:53.081Z,100687.61
2019-05-10T11:08:22.721Z,100695.31
2019-05-10T11:10:53.706Z,100696.20
2019-05-10T11:13:41.359Z,100704.82
2019-05-10T11:15:58.845Z,100702.76
2019-05-10T11:18:31.572Z,100703.65
2019-05-10T11:21:01.928Z,100711.16
2019-05-10T11:23:39.089Z,100709.95
2019-05-10T11:26:04.827Z,100715.73
2019-05-10T11:28:43.451Z,100713.77
2019-05-10T11:31:07.231Z,100720.98
2019-05-10T11:33:36.848Z,100723.65
2019-05-10T11:36:08.859Z,100725.00
2019-05-10T11:38:42.072Z,100734.72
2019-05-10T11:41:18.738Z,100741.07
2019-05-10T11:43:47.504Z,100740.59
2019-05-10T11:46:20.890Z,100736.45
2019-05-10T11:48:51.076Z,100740.01
2019-05-10T11:51:21.779Z,100736.14
2019-05-10T11:56:27.583Z,100743.59
2019-05-10T11:58:56.145Z,100754.45
2019-05-10T11:59:04.858Z,100743.59
2019-05-10T12:01:26.679Z,100755.31
2019-05-10T12:03:56.151Z,100755.89
2019-05-10T12:06:27.599Z,100753.50
2019-05-10T12:09:03.762Z,100769.54
2019-05-10T12:11:34.223Z,100775.94
2019-05-10T12:14:04.067Z,100780.29
2019-05-10T12:16:33.835Z,100784.60
2019-05-10T12:19:15.671Z,100800.84
2019-05-10T12:21:34.766Z,100792.72
2019-05-10T12:24:26.447Z,100795.02
2019-05-10T12:27:12.668Z,100799.81
2019-05-10T12:29:17.094Z,100805.21
2019-05-10T12:31:47.341Z,100806.12
2019-05-10T12:34:17.997Z,100805.80
2019-05-10T12:36:47.602Z,100805.21
2019-05-10T12:39:18.510Z,100798.89
2019-05-10T12:41:49.964Z,100806.64
2019-05-10T12:44:20.755Z,100803.92
2019-05-10T12:46:54.299Z,100813.23
2019-05-10T12:49:23.998Z,100818.55
2019-05-10T12:51:53.645Z,100814.06
2019-05-10T12:54:26.625Z,100809.73
2019-05-10T12:56:57.149Z,100813.53
2019-05-10T12:59:29.760Z,100811.27
2019-05-10T13:02:04.341Z,100821.27
2019-05-10T13:04:40.012Z,100820.89
2019-05-10T13:07:04.944Z,100823.83
2019-05-10T13:09:40.820Z,100826.52
2019-05-10T13:12:08.891Z,100831.29
2019-05-10T13:14:40.070Z,100840.32
2019-05-10T13:17:11.888Z,100844.07
2019-05-10T13:19:41.095Z,100847.35
2019-05-10T13:22:11.933Z,100855.34
2019-05-10T13:24:41.430Z,100852.69
2019-05-10T13:27:13.427Z,100870.94
2019-05-10T13:29:47.160Z,100872.07
2019-05-10T13:32:14.792Z,100874.91
2019-05-10T13:34:45.562Z,100875.05
2019-05-10T13:37:23.278Z,100879.13
2019-05-10T13:39:48.356Z,100883.46
2019-05-10T13:42:19.482Z,100884.12
2019-05-10T13:44:49.798Z,100898.66
2019-05-10T13:47:20.852Z,100898.66
2019-05-10T13:49:50.392Z,100883.46
2019-05-10T13:52:21.937Z,100894.95
2019-05-10T13:54:51.467Z,100901.09
2019-05-10T13:57:22.764Z,100898.63
2019-05-10T13:59:55.307Z,100909.58
2019-05-10T14:02:32.766Z,100910.22
2019-05-10T14:04:55.903Z,100911.53
2019-05-10T14:07:28.370Z,100902.20
2019-05-10T14:09:57.884Z,100903.94
2019-05-10T14:12:28.047Z,100906.70
2019-05-10T14:15:02.430Z,100915.14
2019-05-10T14:17:30.150Z,100911.59
2019-05-10T14:20:00.654Z,100908.67
2019-05-10T14:22:31.812Z,100916.62
2019-05-10T14:25:01.308Z,100917.60
2019-05-10T14:27:35.923Z,100923.31
2019-05-10T14:30:07.319Z,100922.94
2019-05-10T14:32:36.909Z,100916.02
2019-05-10T14:35:07.397Z,100927.70
2019-05-10T14:37:38.616Z,100921.68
2019-05-10T14:40:09.478Z,100924.91
2019-05-10T14:42:40.233Z,100931.87
2019-05-10T14:45:10.051Z,100936.17
2019-05-10T14:47:48.292Z,100944.81
2019-05-10T14:50:13.601Z,100940.44
2019-05-10T14:52:44.457Z,100935.91
2019-05-10T14:55:16.755Z,100949.26
2019-05-10T14:57:46.380Z,100946.25
2019-05-10T15:00:16.709Z,100959.31
2019-05-10T15:02:47.863Z,100953.32
2019-05-10T15:08:18.970Z,100955.64
2019-05-10T15:10:49.461Z,100966.96
2019-05-10T15:13:25.799Z,100977.34
2019-05-10T15:15:54.799Z,100975.73
2019-05-10T15:18:25.635Z,100973.41
2019-05-10T15:20:58.210Z,100974.84
2019-05-10T15:23:29.666Z,100978.05
2019-05-10T15:26:10.574Z,100979.27
2019-05-10T15:28:39.755Z,100983.56
2019-05-10T15:31:05.041Z,100984.86
2019-05-10T15:33:35.683Z,100987.60
2019-05-10T15:36:05.204Z,100976.75
2019-05-10T15:38:39.604Z,100993.52
2019-05-10T15:41:08.912Z,100990.19
2019-05-10T15:43:38.562Z,100989.42
2019-05-10T15:46:08.323Z,100995.50
2019-05-10T15:48:41.852Z,100995.80
2019-05-10T15:51:16.930Z,101001.11
2019-05-10T15:53:46.244Z,100995.23
2019-05-10T15:56:15.897Z,101008.66
2019-05-10T15:58:48.505Z,101004.24
2019-05-10T16:01:26.026Z,101014.11
2019-05-10T16:03:54.409Z,101011.24
2019-05-10T16:06:32.451Z,101006.84
2019-05-10T16:09:16.405Z,101014.41
2019-05-10T16:11:36.922Z,101022.79
2019-05-10T16:14:09.446Z,101022.44
2019-05-10T16:16:42.477Z,101017.18
2019-05-10T16:19:18.688Z,101032.20
2019-05-10T16:21:46.740Z,101037.41
2019-05-10T16:24:25.537Z,101038.55
2019-05-10T16:26:49.273Z,101036.50
2019-05-10T16:29:19.791Z,101040.36
2019-05-10T16:31:49.344Z,101044.44
2019-05-10T16:34:18.997Z,101045.81
2019-05-10T16:36:50.202Z,101047.72
2019-05-10T16:39:19.666Z,101047.43
2019-05-10T16:41:49.433Z,101045.80
2019-05-10T16:44:20.927Z,101051.86
2019-05-10T16:46:50.391Z,101056.30
2019-05-10T16:49:21.235Z,101061.05
2019-05-10T16:51:51.756Z,101057.67
2019-05-10T16:54:25.409Z,101062.42
2019-05-10T16:56:59.318Z,101072.13
2019-05-10T16:59:29.671Z,101061.22
2019-05-10T17:02:03.524Z,101061.50
2019-05-10T17:04:35.292Z,101062.27
2019-05-10T17:07:01.495Z,101065.73
2019-05-10T17:09:34.213Z,101064.28
2019-05-10T17:12:03.626Z,101069.88
2019-05-10T17:14:33.036Z,101074.65
2019-05-10T17:17:03.732Z,101077.78
2019-05-10T17:19:34.087Z,101079.53
2019-05-10T17:22:05.235Z,101077.61
2019-05-10T17:24:35.894Z,101088.55
2019-05-10T17:27:38.427Z,101088.94
2019-05-10T17:30:38.987Z,101099.58
2019-05-10T17:34:08.483Z,101090.14
2019-05-10T17:36:38.145Z,101095.86
2019-05-10T17:39:12.106Z,101096.47
2019-05-10T17:41:43.260Z,101098.39
2019-05-10T17:44:17.477Z,101098.94
2019-05-10T17:46:50.356Z,101095.61
2019-05-10T17:49:18.839Z,101106.41
2019-05-10T17:51:48.471Z,101105.60
2019-05-10T17:54:18.295Z,101103.71
2019-05-10T17:56:47.795Z,101103.70
2019-05-10T17:59:52.957Z,101103.83
2019-05-10T18:05:17.815Z,101108.22
2019-05-10T18:07:47.297Z,101108.33
2019-05-10T18:10:20.022Z,101116.16
2019-05-10T18:12:51.370Z,101112.23
2019-05-10T18:15:27.580Z,101116.73
2019-05-10T18:17:57.471Z,101115.57
2019-05-10T18:20:26.616Z,101117.11
2019-05-10T18:22:56.035Z,101115.31
2019-05-10T18:25:28.800Z,101115.48
2019-05-10T18:30:59.668Z,101127.72
2019-05-10T18:37:23.360Z,101126.85
2019-05-10T18:39:54.744Z,101137.24
2019-05-10T18:42:27.748Z,101130.77
2019-05-10T18:44:57.544Z,101135.14
2019-05-10T18:47:34.451Z,101132.77
2019-05-10T18:50:07.224Z,101128.45
2019-05-10T18:52:37.925Z,101136.94
2019-05-10T18:55:07.452Z,101138.37
2019-05-10T18:57:39.938Z,101140.36
2019-05-10T19:06:44.005Z,101155.55
2019-05-10T19:09:15.421Z,101158.86
2019-05-10T19:11:48.116Z,101161.63
2019-05-10T19:14:29.714Z,101165.41
2019-05-10T19:17:03.871Z,101156.44
2019-05-10T19:19:42.786Z,101163.66
2019-05-10T19:22:12.429Z,101172.16
2019-05-10T19:24:41.839Z,101169.52
2019-05-10T19:27:11.540Z,101177.38
2019-05-10T19:29:47.831Z,101175.11
2019-05-10T19:32:22.628Z,101180.14
2019-05-10T19:35:01.044Z,101179.45
2019-05-10T19:37:36.720Z,101185.13
2019-05-10T19:40:12.658Z,101187.58
2019-05-10T19:42:45.109Z,101197.20
2019-05-10T19:45:43.276Z,101193.09
2019-05-10T19:47:57.277Z,101193.01
2019-05-10T19:50:30.900Z,101197.75
2019-05-10T19:53:03.606Z,101191.27
2019-05-10T19:55:31.035Z,101191.91
2019-05-10T19:58:02.575Z,101197.25
2019-05-10T20:00:34.741Z,101195.59
2019-05-10T20:03:11.179Z,101197.95
2019-05-10T20:05:46.564Z,101198.12
2019-05-10T20:08:23.514Z,101197.22
2019-05-10T20:10:52.891Z,101206.00
2019-05-10T20:13:32.508Z,101202.33
2019-05-10T20:16:10.781Z,101203.37
2019-05-10T20:18:48.323Z,101205.73
2019-05-10T20:21:20.769Z,101210.66
2019-05-10T20:23:52.963Z,101207.79
2019-05-10T20:26:22.342Z,101214.52
2019-05-10T20:28:59.467Z,101219.64
2019-05-10T20:31:33.764Z,101215.36
2019-05-10T20:34:07.667Z,101224.69
2019-05-10T20:36:48.032Z,101225.53
2019-05-10T20:39:21.051Z,101220.52
2019-05-10T20:42:02.581Z,101218.95
2019-05-10T20:44:37.540Z,101227.13
2019-05-10T20:47:12.895Z,101231.90
2019-05-10T20:49:46.700Z,101223.85
2019-05-10T20:52:20.445Z,101226.89
2019-05-10T20:54:53.044Z,101230.89
2019-05-10T20:57:25.617Z,101228.70
2019-05-10T20:59:57.036Z,101227.29
2019-05-10T21:02:30.536Z,101237.58
2019-05-10T21:05:02.766Z,101240.47
2019-05-10T21:07:33.446Z,101237.88
2019-05-10T21:10:13.515Z,101239.22
2019-05-10T21:12:42.909Z,101239.22
2019-05-10T21:15:14.029Z,101236.23
2019-05-10T21:17:50.630Z,101246.34
2019-05-10T21:20:38.553Z,101245.09
2019-05-10T21:23:12.878Z,101244.07
2019-05-10T21:25:48.538Z,101248.32
2019-05-10T21:28:22.926Z,101247.53
2019-05-10T21:30:57.759Z,101253.88
2019-05-10T21:33:29.524Z,101252.55
2019-05-10T21:36:09.081Z,101258.34
2019-05-10T21:38:42.892Z,101259.30
2019-05-10T21:41:16.620Z,101257.72
2019-05-10T21:43:50.917Z,101259.19
2019-05-10T21:46:25.050Z,101261.84
2019-05-10T21:49:00.764Z,101264.67
2019-05-10T21:51:38.930Z,101270.17
2019-05-10T21:54:17.173Z,101273.83
2019-05-10T21:56:54.834Z,101274.42
2019-05-10T21:59:29.393Z,101273.72
2019-05-10T22:02:02.932Z,101277.30
2019-05-10T22:04:36.725Z,101277.71
2019-05-10T22:07:11.048Z,101279.91
2019-05-10T22:09:49.537Z,101271.68
2019-05-10T22:12:28.879Z,101277.67
2019-05-10T22:15:07.626Z,101277.05
2019-05-10T22:17:48.948Z,101287.16
2019-05-10T22:20:18.561Z,101289.81
2019-05-10T22:22:56.991Z,101295.38
2019-05-10T22:25:30.582Z,101294.81
2019-05-10T22:28:02.963Z,101306.56
2019-05-10T22:30:38.629Z,101302.58
2019-05-10T22:33:12.613Z,101294.47
2019-05-10T22:35:45.239Z,101295.80
2019-05-10T22:38:19.016Z,101291.71
2019-05-10T22:40:54.465Z,101287.01
2019-05-10T22:43:26.807Z,101276.19
2019-05-10T22:46:05.105Z,101272.56
2019-05-10T22:48:34.636Z,101266.40
2019-05-10T22:51:04.069Z,101261.00
2019-05-10T22:53:34.587Z,101267.73
2019-05-10T22:56:05.398Z,101278.23
2019-05-10T22:58:39.732Z,101275.45
2019-05-10T23:01:28.093Z,101278.50
2019-05-10T23:04:03.625Z,101276.73
2019-05-10T23:06:47.783Z,101276.25
2019-05-10T23:09:25.172Z,101276.55
2019-05-10T23:11:59.177Z,101275.91
2019-05-10T23:14:32.061Z,101279.52
2019-05-10T23:17:02.690Z,101282.02
2019-05-10T23:19:32.188Z,101278.49
2019-05-10T23:22:01.793Z,101279.83
2019-05-10T23:24:39.601Z,101273.67
2019-05-10T23:27:14.915Z,101277.70
2019-05-10T23:29:53.823Z,101287.08
2019-05-10T23:32:23.276Z,101288.41
2019-05-10T23:34:54.156Z,101290.02
2019-05-10T23:37:26.686Z,101297.16
2019-05-10T23:40:02.484Z,101297.16
2019-05-10T23:42:31.935Z,101293.63
2019-05-10T23:45:02.482Z,101292.19
2019-05-10T23:47:32.086Z,101295.48
2019-05-10T23:50:03.754Z,101290.32
2019-05-10T23:52:33.240Z,101296.02
2019-05-10T23:55:02.839Z,101301.08
2019-05-10T23:57:39.725Z,101296.62
